METAR AND TAF INFORMATION
METAR FOR HEAL
ADDS - METARS form results

(0719 UTC 26 March 2019)
Data provider http://aviationweather.gov/metar/data/
 
Forecast for: HEAL (EL ALAMEIN , EG)
Text: TAF HEAL 260500Z 2606/2712 29015KT 9999 FEW020
Forecast period: 0600 UTC 26 March 2019 to 1200 UTC 27 March 2019
Forecast type: FROM: standard forecast or significant change
Winds: from the WNW (290 degrees) at 17 MPH (15 knots; 7.7 m/s)
Visibility: 6 or more miles 10+ km)
Ceiling: at least 12,000 feet AGL
Clouds: few clouds at 2000 feet AGL
Weather: no significant weather forecast for this period

 AIRPORT MAP

 RUNWAY INFORMATION
Runway 13 Runway length 11479 ft Runway width 148 ft
Runway elevation 143 ft Runway displaced threshold 0 ft Runway heading 130
Runway 31 Runway length 11479 ft Runway width 148 ft
Runway elevation 140 ft Runway displaced threshold 0 ft Runway heading 310

 AIRPORT FREQUENCIES
Type GND Name GND Frequency 121.9 MHZ
Type TWR Name TWR Frequency 123.4 MHZ

 AIRPORT NEAR NAVIGATION AIDS
Type VOR-DME Name El Daba Frequency 115700 KHZ



Powered by Virtual Airlines Manager [v2.6.2]